Time;durP1;ratioP1;P1;durP2;ratioP2;P2;SDS_P1;SDS_P2;PMS_P1;PMS_P2;Temp;Humidity;BMP_temperature;BMP_pressure;BME280_temperature;BME280_humidity;BME280_pressure;Samples;Min_cycle;Max_cycle;Signal;HPM_P1;HPM_P2
2021/07/25 00:01:42;;;;;;;;;;;21.60;79.10;;;;;;5034909;28;1500;-67
2021/07/25 00:04:08;;;;;;;;;;;21.60;79.20;;;;;;5034801;28;1360;-67
2021/07/25 00:06:33;;;;;;;;;;;21.60;79.10;;;;;;5034627;28;1964;-67
2021/07/25 00:08:59;;;;;;;;;;;21.60;79.10;;;;;;5033465;28;1453;-68
2021/07/25 00:11:24;;;;;;;;;;;21.60;79.10;;;;;;5033374;28;1391;-68
2021/07/25 00:13:52;;;;;;;;;;;21.60;79.10;;;;;;5034629;28;1241;-70
2021/07/25 00:16:18;;;;;;;;;;;21.70;79.20;;;;;;5033392;28;1447;-68
2021/07/25 00:18:43;;;;;;;;;;;21.60;79.10;;;;;;5034651;28;1651;-68
2021/07/25 00:21:09;;;;;;;;;;;21.60;79.20;;;;;;5043787;28;1372;-67
2021/07/25 00:23:35;;;;;;;;;;;21.60;79.10;;;;;;5046558;28;1376;-68
2021/07/25 00:26:00;;;;;;;;;;;21.70;79.20;;;;;;5033141;28;1965;-68
2021/07/25 00:28:32;;;;;;;;;;;21.60;79.10;;;;;;5033667;28;1645;-66
2021/07/25 00:31:02;;;;;;;;;;;21.60;79.10;;;;;;5034676;28;1254;-66
2021/07/25 00:33:27;;;;;;;;;;;21.60;79.10;;;;;;5033331;28;1399;-67
2021/07/25 00:35:53;;;;;;;;;;;21.70;79.20;;;;;;5032796;28;1688;-68
2021/07/25 00:38:18;;;;;;;;;;;21.60;79.10;;;;;;5032987;28;1383;-67
2021/07/25 00:40:44;;;;;;;;;;;21.60;79.10;;;;;;5034083;28;1411;-67
2021/07/25 00:43:09;;;;;;;;;;;21.70;79.20;;;;;;5032838;28;1617;-67
2021/07/25 00:45:35;;;;;;;;;;;21.60;79.10;;;;;;5048734;28;1949;-68
2021/07/25 00:48:00;;;;;;;;;;;21.60;79.10;;;;;;5052624;28;1699;-66
2021/07/25 00:50:26;;;;;;;;;;;21.60;79.20;;;;;;5053920;28;1752;-66
2021/07/25 00:52:51;;;;;;;;;;;21.60;79.10;;;;;;5043844;28;1403;-66
2021/07/25 00:55:16;;;;;;;;;;;21.60;79.10;;;;;;5032469;28;1750;-66
2021/07/25 00:57:42;;;;;;;;;;;21.60;79.10;;;;;;5031967;28;1676;-66
2021/07/25 01:00:10;;;;;;;;;;;21.60;79.10;;;;;;5033583;28;1384;-67
2021/07/25 01:02:53;;;;;;;;;;;21.60;79.10;;;;;;5032860;28;1603;-67
2021/07/25 01:05:22;;;;;;;;;;;21.60;79.10;;;;;;5031161;28;1906;-66
2021/07/25 01:07:52;;;;;;;;;;;21.60;79.10;;;;;;5015450;28;1354;-67
2021/07/25 01:10:18;;;;;;;;;;;21.60;79.10;;;;;;5038772;28;1387;-67
2021/07/25 01:12:44;;;;;;;;;;;21.60;79.10;;;;;;5053151;28;1410;-67
2021/07/25 01:15:10;;;;;;;;;;;21.60;79.20;;;;;;5050876;28;1554;-67
2021/07/25 01:17:36;;;;;;;;;;;21.60;79.10;;;;;;5052185;28;1690;-67
2021/07/25 01:20:02;;;;;;;;;;;21.60;79.10;;;;;;5051391;28;1407;-67
2021/07/25 01:22:29;;;;;;;;;;;21.60;79.10;;;;;;5032942;28;1371;-67
2021/07/25 01:24:54;;;;;;;;;;;21.60;79.10;;;;;;5038693;28;1898;-68
2021/07/25 01:27:28;;;;;;;;;;;21.60;79.10;;;;;;5052085;28;1602;-67
2021/07/25 01:29:55;;;;;;;;;;;21.60;79.20;;;;;;5051584;28;1339;-67
2021/07/25 01:32:20;;;;;;;;;;;21.70;79.20;;;;;;5051493;28;1380;-67
2021/07/25 01:34:46;;;;;;;;;;;21.60;79.10;;;;;;5051830;28;1233;-67
2021/07/25 01:37:11;;;;;;;;;;;21.60;79.10;;;;;;5051406;28;1284;-67
2021/07/25 01:39:37;;;;;;;;;;;21.60;79.10;;;;;;5050726;28;1654;-67
2021/07/25 01:42:02;;;;;;;;;;;21.60;79.90;;;;;;5052782;28;1596;-67
2021/07/25 01:44:28;;;;;;;;;;;21.60;79.10;;;;;;5051901;28;1553;-67
2021/07/25 01:46:53;;;;;;;;;;;21.60;79.10;;;;;;5052780;28;1952;-67
2021/07/25 01:49:19;;;;;;;;;;;21.60;79.10;;;;;;5052489;28;1689;-67
2021/07/25 01:51:44;;;;;;;;;;;21.60;79.10;;;;;;5051304;28;1681;-67
2021/07/25 01:54:10;;;;;;;;;;;21.60;79.10;;;;;;5031836;28;1617;-67
2021/07/25 01:56:35;;;;;;;;;;;21.70;79.20;;;;;;5032659;28;1421;-67
2021/07/25 01:59:00;;;;;;;;;;;21.60;79.20;;;;;;5032693;28;1363;-68
2021/07/25 02:01:26;;;;;;;;;;;21.60;79.20;;;;;;5032412;28;1348;-67
2021/07/25 02:03:51;;;;;;;;;;;21.60;79.10;;;;;;5032307;28;1423;-67
2021/07/25 02:06:17;;;;;;;;;;;21.60;79.10;;;;;;5030250;28;1955;-67
2021/07/25 02:08:42;;;;;;;;;;;21.60;79.20;;;;;;5032294;28;1622;-67
2021/07/25 02:11:08;;;;;;;;;;;21.60;79.20;;;;;;5032121;28;1470;-66
2021/07/25 02:13:33;;;;;;;;;;;21.60;79.10;;;;;;5030967;28;1405;-66
2021/07/25 02:15:59;;;;;;;;;;;21.70;79.20;;;;;;5030447;28;1575;-69
2021/07/25 02:18:24;;;;;;;;;;;21.60;79.10;;;;;;5032233;28;1398;-69
2021/07/25 02:20:49;;;;;;;;;;;21.60;79.10;;;;;;5038711;28;1384;-67
2021/07/25 02:23:15;;;;;;;;;;;21.60;79.10;;;;;;5043952;28;1387;-67
2021/07/25 02:25:40;;;;;;;;;;;21.60;79.10;;;;;;5030353;28;1899;-67
2021/07/25 02:28:06;;;;;;;;;;;21.60;79.10;;;;;;5032634;28;1382;-67
2021/07/25 02:30:31;;;;;;;;;;;21.60;79.10;;;;;;5032174;28;1674;-67
2021/07/25 02:32:57;;;;;;;;;;;21.60;79.10;;;;;;5031865;28;1055;-67
2021/07/25 02:35:22;;;;;;;;;;;21.60;79.10;;;;;;5030531;28;1119;-67
2021/07/25 02:37:48;;;;;;;;;;;21.60;79.20;;;;;;5032237;28;1800;-67
2021/07/25 02:40:13;;;;;;;;;;;21.60;79.10;;;;;;5032095;28;1189;-67
2021/07/25 02:42:39;;;;;;;;;;;21.60;79.10;;;;;;5032112;28;1126;-67
2021/07/25 02:45:04;;;;;;;;;;;21.60;79.10;;;;;;5043378;28;1965;-67
2021/07/25 02:47:30;;;;;;;;;;;21.60;79.10;;;;;;5051912;28;1723;-68
2021/07/25 02:49:55;;;;;;;;;;;21.60;79.10;;;;;;5052285;28;1552;-68
2021/07/25 02:52:21;;;;;;;;;;;21.60;79.10;;;;;;5050221;28;1438;-68
2021/07/25 02:54:46;;;;;;;;;;;21.60;79.10;;;;;;5034779;28;1396;-68
2021/07/25 02:57:12;;;;;;;;;;;21.60;79.10;;;;;;5034663;28;1829;-68
2021/07/25 02:59:37;;;;;;;;;;;21.70;79.20;;;;;;5035418;28;1394;-68
2021/07/25 03:02:03;;;;;;;;;;;21.60;79.90;;;;;;5035744;28;1440;-68
2021/07/25 03:04:28;;;;;;;;;;;21.60;79.10;;;;;;5034944;28;1356;-69
2021/07/25 03:06:53;;;;;;;;;;;21.60;79.10;;;;;;5035792;28;1902;-68
2021/07/25 03:09:19;;;;;;;;;;;21.60;79.10;;;;;;5035640;28;1208;-68
2021/07/25 03:11:44;;;;;;;;;;;21.70;79.20;;;;;;5035396;28;1416;-68
2021/07/25 03:14:10;;;;;;;;;;;21.60;79.10;;;;;;5034935;28;1384;-67
2021/07/25 03:16:35;;;;;;;;;;;21.60;79.10;;;;;;5035676;28;1749;-67
2021/07/25 03:19:01;;;;;;;;;;;21.70;79.20;;;;;;5033644;28;1801;-67
2021/07/25 03:21:26;;;;;;;;;;;21.60;79.10;;;;;;5046847;28;1136;-67
2021/07/25 03:23:51;;;;;;;;;;;21.60;79.10;;;;;;5043685;28;1290;-67
2021/07/25 03:26:17;;;;;;;;;;;21.60;79.10;;;;;;5031751;28;1910;-67
2021/07/25 03:28:42;;;;;;;;;;;21.60;79.10;;;;;;5035267;28;1365;-68
2021/07/25 03:31:08;;;;;;;;;;;21.60;79.10;;;;;;5035254;28;1418;-67
2021/07/25 03:33:33;;;;;;;;;;;21.60;79.10;;;;;;5034125;28;1668;-68
2021/07/25 03:35:59;;;;;;;;;;;21.70;79.20;;;;;;5034227;28;1380;-67
2021/07/25 03:38:25;;;;;;;;;;;21.70;79.20;;;;;;5035268;28;1394;-67
2021/07/25 03:40:51;;;;;;;;;;;21.70;79.20;;;;;;5034110;28;1439;-67
2021/07/25 03:43:16;;;;;;;;;;;21.60;79.10;;;;;;5034121;28;1806;-67
2021/07/25 03:45:45;;;;;;;;;;;21.60;79.10;;;;;;5051691;28;1959;-68
2021/07/25 03:48:11;;;;;;;;;;;21.70;79.90;;;;;;5053845;28;1666;-67
2021/07/25 03:50:36;;;;;;;;;;;21.60;79.10;;;;;;5053652;28;1709;-68
2021/07/25 03:53:02;;;;;;;;;;;21.70;79.20;;;;;;5043686;28;1386;-67
2021/07/25 03:55:27;;;;;;;;;;;21.70;79.20;;;;;;5032588;28;1421;-67
2021/07/25 03:57:53;;;;;;;;;;;21.70;79.20;;;;;;5034600;28;1677;-67
2021/07/25 04:00:18;;;;;;;;;;;21.60;79.10;;;;;;5034838;28;1464;-67
2021/07/25 04:02:44;;;;;;;;;;;21.60;79.10;;;;;;5033722;28;1381;-67
2021/07/25 04:05:09;;;;;;;;;;;21.60;79.10;;;;;;5033768;28;1979;-67
2021/07/25 04:07:35;;;;;;;;;;;21.60;79.10;;;;;;5033627;28;1745;-67
2021/07/25 04:10:00;;;;;;;;;;;21.60;79.10;;;;;;5034551;28;1494;-68
2021/07/25 04:12:26;;;;;;;;;;;21.60;79.10;;;;;;5034675;28;1675;-67
2021/07/25 04:14:51;;;;;;;;;;;21.70;79.20;;;;;;5033671;28;1408;-67
2021/07/25 04:17:17;;;;;;;;;;;21.60;79.10;;;;;;5034680;28;1660;-67
2021/07/25 04:19:42;;;;;;;;;;;21.70;79.10;;;;;;5034291;28;1668;-67
2021/07/25 04:22:07;;;;;;;;;;;21.60;79.10;;;;;;5051846;28;1503;-66
2021/07/25 04:24:33;;;;;;;;;;;21.70;79.10;;;;;;5037271;28;1363;-67
2021/07/25 04:26:58;;;;;;;;;;;21.70;79.10;;;;;;5034184;28;1965;-67
2021/07/25 04:29:24;;;;;;;;;;;21.70;79.10;;;;;;5033946;28;1316;-67
2021/07/25 04:31:49;;;;;;;;;;;21.70;79.10;;;;;;5034544;28;1158;-68
2021/07/25 04:34:15;;;;;;;;;;;21.70;79.20;;;;;;5033764;28;1648;-68
2021/07/25 04:36:42;;;;;;;;;;;21.60;79.10;;;;;;5034125;28;1645;-67
2021/07/25 04:39:08;;;;;;;;;;;21.60;79.10;;;;;;5032746;28;1709;-67
2021/07/25 04:41:34;;;;;;;;;;;21.60;79.10;;;;;;5032708;28;1391;-67
2021/07/25 04:44:00;;;;;;;;;;;21.70;79.10;;;;;;5035933;28;1475;-67
2021/07/25 04:46:26;;;;;;;;;;;21.70;79.10;;;;;;5052257;28;1963;-67
2021/07/25 04:48:58;;;;;;;;;;;21.70;79.10;;;;;;5052534;28;1731;-67
2021/07/25 04:51:23;;;;;;;;;;;21.60;79.10;;;;;;5053878;28;1170;-67
2021/07/25 04:53:49;;;;;;;;;;;21.60;79.10;;;;;;5036109;28;1512;-68
2021/07/25 04:56:15;;;;;;;;;;;21.60;79.00;;;;;;5032613;28;1441;-66
2021/07/25 04:58:43;;;;;;;;;;;21.60;79.00;;;;;;5033830;28;1376;-67
2021/07/25 05:01:10;;;;;;;;;;;21.60;79.10;;;;;;5033477;28;1067;-68
2021/07/25 05:03:36;;;;;;;;;;;21.60;79.10;;;;;;5033290;28;1135;-68
2021/07/25 05:06:01;;;;;;;;;;;21.70;79.10;;;;;;5032250;28;1907;-68
2021/07/25 05:08:27;;;;;;;;;;;21.70;79.10;;;;;;5032908;28;1217;-67
2021/07/25 05:10:54;;;;;;;;;;;21.60;79.10;;;;;;5032022;28;1118;-68
2021/07/25 05:13:20;;;;;;;;;;;21.70;79.20;;;;;;5032077;28;1150;-67
2021/07/25 05:15:45;;;;;;;;;;;21.70;79.10;;;;;;5032457;28;1114;-68
2021/07/25 05:18:31;;;;;;;;;;;21.70;79.10;;;;;;5031686;28;1365;-67
2021/07/25 05:21:01;;;;;;;;;;;21.70;79.20;;;;;;5039390;28;1044;-67
2021/07/25 05:23:29;;;;;;;;;;;21.70;79.10;;;;;;5039861;28;1123;-67
2021/07/25 05:25:55;;;;;;;;;;;21.70;79.10;;;;;;5051908;28;1902;-67
2021/07/25 05:28:20;;;;;;;;;;;21.70;79.10;;;;;;5052903;28;1656;-67
2021/07/25 05:30:52;;;;;;;;;;;21.70;79.10;;;;;;5052853;28;1122;-68
2021/07/25 05:33:21;;;;;;;;;;;21.70;79.10;;;;;;5052554;28;1047;-68
2021/07/25 05:35:47;;;;;;;;;;;21.60;79.00;;;;;;5050603;28;1114;-68
2021/07/25 05:38:12;;;;;;;;;;;21.70;79.00;;;;;;5052767;28;1350;-67
2021/07/25 05:40:38;;;;;;;;;;;21.70;79.00;;;;;;5052764;28;1071;-67
2021/07/25 05:43:03;;;;;;;;;;;21.70;79.00;;;;;;5052353;28;1134;-67
2021/07/25 05:45:29;;;;;;;;;;;21.70;78.90;;;;;;5051395;28;1902;-67
2021/07/25 05:47:54;;;;;;;;;;;21.70;78.90;;;;;;5051110;28;1335;-67
2021/07/25 05:50:19;;;;;;;;;;;21.70;78.90;;;;;;5052193;28;1110;-69
2021/07/25 05:52:45;;;;;;;;;;;21.60;78.80;;;;;;5043391;28;1082;-68
2021/07/25 05:55:11;;;;;;;;;;;21.70;78.80;;;;;;5030182;28;1075;-68
2021/07/25 05:57:37;;;;;;;;;;;21.70;78.80;;;;;;5031200;28;1165;-68
2021/07/25 06:00:04;;;;;;;;;;;21.70;78.80;;;;;;5031851;28;1287;-67
2021/07/25 06:02:30;;;;;;;;;;;21.70;78.80;;;;;;5032924;28;1032;-67
2021/07/25 06:04:55;;;;;;;;;;;21.70;78.80;;;;;;5031627;28;1123;-68
2021/07/25 06:07:21;;;;;;;;;;;21.60;78.70;;;;;;5032067;28;1914;-68
2021/07/25 06:09:46;;;;;;;;;;;21.70;78.80;;;;;;5031519;28;1290;-67
2021/07/25 06:12:14;;;;;;;;;;;21.70;78.80;;;;;;5032485;28;1047;-67
2021/07/25 06:14:39;;;;;;;;;;;21.70;78.80;;;;;;5031432;28;1083;-67
2021/07/25 06:17:04;;;;;;;;;;;21.70;78.80;;;;;;5032189;28;1110;-68
2021/07/25 06:19:30;;;;;;;;;;;21.70;78.80;;;;;;5030768;28;1193;-67
2021/07/25 06:21:55;;;;;;;;;;;21.70;78.80;;;;;;5045779;28;1115;-68
2021/07/25 06:24:21;;;;;;;;;;;21.70;78.80;;;;;;5051222;28;1042;-67
2021/07/25 06:26:47;;;;;;;;;;;21.70;78.80;;;;;;5055978;28;1952;-68
2021/07/25 06:29:13;;;;;;;;;;;21.60;78.70;;;;;;5055969;28;1281;-68
2021/07/25 06:31:38;;;;;;;;;;;21.70;78.80;;;;;;5055085;28;1130;-68
2021/07/25 06:34:04;;;;;;;;;;;21.70;78.80;;;;;;5055792;28;1886;-67
2021/07/25 06:36:29;;;;;;;;;;;21.70;78.80;;;;;;5055388;28;1395;-68
2021/07/25 06:38:54;;;;;;;;;;;21.70;78.80;;;;;;5056187;28;1266;-68
2021/07/25 06:41:20;;;;;;;;;;;21.70;78.80;;;;;;5056109;28;1074;-67
2021/07/25 06:43:45;;;;;;;;;;;21.70;78.80;;;;;;5055869;28;1063;-67
2021/07/25 06:46:11;;;;;;;;;;;21.70;78.80;;;;;;5054656;28;1902;-67
2021/07/25 06:48:37;;;;;;;;;;;21.70;78.80;;;;;;5055682;28;1274;-68
2021/07/25 06:51:02;;;;;;;;;;;21.70;78.80;;;;;;5055697;28;1145;-67
2021/07/25 06:53:28;;;;;;;;;;;21.70;78.80;;;;;;5054619;28;1299;-67
2021/07/25 06:55:54;;;;;;;;;;;21.70;78.90;;;;;;5055304;28;1011;-68
2021/07/25 06:58:20;;;;;;;;;;;21.70;78.80;;;;;;5055611;28;1259;-67
2021/07/25 07:00:45;;;;;;;;;;;21.70;78.80;;;;;;5054868;28;1174;-67
2021/07/25 07:03:10;;;;;;;;;;;21.70;78.90;;;;;;5055787;28;1158;-68
2021/07/25 07:05:36;;;;;;;;;;;21.70;78.80;;;;;;5053959;28;1913;-67
2021/07/25 07:08:02;;;;;;;;;;;21.70;78.90;;;;;;5055495;28;1349;-68
2021/07/25 07:10:31;;;;;;;;;;;21.70;78.90;;;;;;5054084;28;991;-68
2021/07/25 07:12:57;;;;;;;;;;;21.70;78.90;;;;;;5054339;28;1280;-67
2021/07/25 07:15:23;;;;;;;;;;;21.70;78.90;;;;;;5053262;28;995;-67
2021/07/25 07:17:49;;;;;;;;;;;21.70;78.90;;;;;;5055655;28;1343;-68
2021/07/25 07:20:14;;;;;;;;;;;21.70;78.90;;;;;;5053585;28;1281;-67
2021/07/25 07:22:40;;;;;;;;;;;21.70;78.90;;;;;;5034880;28;1336;-67
2021/07/25 07:25:06;;;;;;;;;;;21.70;78.90;;;;;;5033509;28;1906;-67
2021/07/25 07:27:31;;;;;;;;;;;21.70;78.90;;;;;;5033951;28;1067;-68
2021/07/25 07:29:57;;;;;;;;;;;21.70;78.90;;;;;;5035117;28;1279;-68
2021/07/25 07:32:22;;;;;;;;;;;21.70;78.90;;;;;;5033957;28;1047;-67
2021/07/25 07:34:47;;;;;;;;;;;21.70;78.90;;;;;;5034697;28;1106;-67
2021/07/25 07:37:13;;;;;;;;;;;21.70;78.90;;;;;;5034267;28;1091;-67
2021/07/25 07:39:39;;;;;;;;;;;21.70;79.00;;;;;;5035035;28;1197;-68
2021/07/25 07:42:04;;;;;;;;;;;21.70;78.90;;;;;;5035119;28;1119;-67
2021/07/25 07:44:30;;;;;;;;;;;21.70;79.00;;;;;;5041038;28;1157;-67
2021/07/25 07:46:56;;;;;;;;;;;21.70;79.00;;;;;;5054238;28;1945;-67
2021/07/25 07:49:21;;;;;;;;;;;21.70;79.00;;;;;;5054986;28;1295;-67
2021/07/25 07:51:46;;;;;;;;;;;21.70;79.00;;;;;;5053345;28;1102;-68
2021/07/25 07:54:12;;;;;;;;;;;21.70;79.00;;;;;;5034440;28;1158;-68
2021/07/25 07:56:37;;;;;;;;;;;21.70;79.00;;;;;;5034668;28;1134;-68
2021/07/25 07:59:03;;;;;;;;;;;21.70;79.00;;;;;;5033874;28;1191;-67
2021/07/25 08:01:28;;;;;;;;;;;21.70;79.00;;;;;;5033579;28;1039;-67
2021/07/25 08:03:54;;;;;;;;;;;21.70;79.00;;;;;;5034987;28;1083;-68
2021/07/25 08:06:19;;;;;;;;;;;21.70;79.00;;;;;;5034172;28;1906;-67
2021/07/25 08:08:44;;;;;;;;;;;21.70;79.00;;;;;;5033056;28;1309;-67
2021/07/25 08:11:10;;;;;;;;;;;21.70;79.00;;;;;;5034019;28;1095;-68
2021/07/25 08:13:35;;;;;;;;;;;21.70;79.00;;;;;;5033354;28;1075;-67
2021/07/25 08:16:01;;;;;;;;;;;21.70;79.00;;;;;;5033890;28;1044;-68
2021/07/25 08:18:26;;;;;;;;;;;21.70;79.00;;;;;;5034691;28;1223;-67
2021/07/25 08:20:52;;;;;;;;;;;21.70;79.00;;;;;;5041290;28;1087;-67
2021/07/25 08:23:17;;;;;;;;;;;21.70;79.00;;;;;;5047321;28;1181;-68
2021/07/25 08:25:42;;;;;;;;;;;21.70;79.40;;;;;;5033761;28;1961;-68
2021/07/25 08:28:08;;;;;;;;;;;21.70;79.00;;;;;;5034275;28;1388;-68
2021/07/25 08:30:33;;;;;;;;;;;21.70;79.00;;;;;;5033002;28;1067;-68
2021/07/25 08:32:59;;;;;;;;;;;21.70;79.00;;;;;;5033904;28;1083;-68
2021/07/25 08:35:24;;;;;;;;;;;21.70;79.00;;;;;;5033654;28;1122;-68
2021/07/25 08:37:50;;;;;;;;;;;21.70;79.00;;;;;;5034330;28;1213;-67
2021/07/25 08:40:15;;;;;;;;;;;21.70;79.00;;;;;;5033460;28;1178;-67
2021/07/25 08:42:49;;;;;;;;;;;21.70;79.00;;;;;;5034147;28;1251;-67
2021/07/25 08:45:14;;;;;;;;;;;21.70;79.00;;;;;;5047032;28;1898;-67
2021/07/25 08:47:40;;;;;;;;;;;21.70;79.00;;;;;;5051926;28;1425;-68
2021/07/25 08:50:08;;;;;;;;;;;21.70;79.00;;;;;;5053068;28;1110;-68
2021/07/25 08:52:35;;;;;;;;;;;21.70;79.80;;;;;;5046063;28;1157;-67
2021/07/25 08:55:02;;;;;;;;;;;21.70;79.00;;;;;;5031816;28;1143;-68
2021/07/25 08:57:32;;;;;;;;;;;21.70;79.00;;;;;;5032499;28;1181;-67
2021/07/25 08:59:57;;;;;;;;;;;21.70;79.00;;;;;;5033109;28;1228;-68
2021/07/25 09:02:24;;;;;;;;;;;21.70;79.00;;;;;;5033184;28;1062;-67
2021/07/25 09:04:50;;;;;;;;;;;21.70;79.00;;;;;;5032558;28;1091;-68
2021/07/25 09:07:15;;;;;;;;;;;21.70;79.00;;;;;;5033493;28;1969;-67
2021/07/25 09:09:42;;;;;;;;;;;21.70;79.00;;;;;;5031727;28;1200;-67
2021/07/25 09:12:07;;;;;;;;;;;21.70;79.00;;;;;;5033647;28;1107;-67
2021/07/25 09:14:33;;;;;;;;;;;21.70;79.00;;;;;;5033266;28;1083;-68
2021/07/25 09:16:58;;;;;;;;;;;21.70;79.00;;;;;;5033373;28;1110;-68
2021/07/25 09:19:24;;;;;;;;;;;21.70;79.00;;;;;;5032648;28;1188;-68
2021/07/25 09:21:50;;;;;;;;;;;21.70;79.00;;;;;;5047891;28;1099;-68
2021/07/25 09:24:23;;;;;;;;;;;21.70;79.00;;;;;;5037950;28;1106;-68
2021/07/25 09:26:51;;;;;;;;;;;21.70;79.00;;;;;;5032020;28;1947;-68
2021/07/25 09:29:17;;;;;;;;;;;21.70;78.90;;;;;;5032864;28;1261;-68
2021/07/25 09:31:43;;;;;;;;;;;21.70;78.90;;;;;;5031601;28;1145;-68
2021/07/25 09:34:08;;;;;;;;;;;21.70;79.00;;;;;;5030874;28;1075;-67
2021/07/25 09:36:36;;;;;;;;;;;21.70;79.00;;;;;;5032988;28;1064;-68
2021/07/25 09:39:01;;;;;;;;;;;21.70;79.00;;;;;;5032626;28;1347;-68
2021/07/25 09:41:27;;;;;;;;;;;21.70;79.00;;;;;;5032667;28;1059;-68
2021/07/25 09:44:03;;;;;;;;;;;21.70;79.00;;;;;;5034116;28;1087;-68
2021/07/25 09:46:39;;;;;;;;;;;21.70;79.00;;;;;;5052454;28;2006;-68
2021/07/25 09:49:05;;;;;;;;;;;21.70;79.00;;;;;;5051074;28;1630;-67
2021/07/25 09:51:30;;;;;;;;;;;21.70;79.00;;;;;;5051336;28;1070;-67
2021/07/25 09:53:56;;;;;;;;;;;21.70;79.00;;;;;;5032407;28;1119;-67
2021/07/25 09:56:24;;;;;;;;;;;21.70;79.00;;;;;;5030824;28;1213;-68
2021/07/25 09:58:50;;;;;;;;;;;21.70;79.00;;;;;;5031962;28;1206;-68
2021/07/25 10:01:34;;;;;;;;;;;21.70;79.00;;;;;;5031753;28;1149;-68
2021/07/25 10:04:12;;;;;;;;;;;21.70;79.00;;;;;;5040500;28;1060;-68
2021/07/25 10:06:38;;;;;;;;;;;21.70;79.00;;;;;;5052457;28;1902;-67
2021/07/25 10:09:11;;;;;;;;;;;21.70;79.00;;;;;;5052094;28;1247;-67
2021/07/25 10:11:37;;;;;;;;;;;21.70;79.00;;;;;;5052152;28;1098;-68
2021/07/25 10:14:02;;;;;;;;;;;21.70;79.00;;;;;;5050525;28;1348;-67
2021/07/25 10:16:28;;;;;;;;;;;21.70;79.00;;;;;;5052141;28;1086;-68
2021/07/25 10:18:53;;;;;;;;;;;21.70;79.00;;;;;;5052277;28;1307;-68
2021/07/25 10:21:19;;;;;;;;;;;21.70;79.00;;;;;;5041310;28;1178;-68
2021/07/25 10:23:44;;;;;;;;;;;21.70;79.00;;;;;;5030776;28;1075;-67
2021/07/25 10:26:10;;;;;;;;;;;21.70;79.00;;;;;;5030198;28;1936;-68
2021/07/25 10:28:35;;;;;;;;;;;21.70;79.00;;;;;;5032105;28;1270;-68
2021/07/25 10:31:01;;;;;;;;;;;21.70;79.00;;;;;;5031080;28;1156;-68
2021/07/25 10:33:29;;;;;;;;;;;21.70;79.00;;;;;;5031096;28;1162;-68
2021/07/25 10:35:55;;;;;;;;;;;21.70;79.00;;;;;;5030648;28;1035;-67
2021/07/25 10:38:21;;;;;;;;;;;21.70;79.00;;;;;;5030724;28;1364;-67
2021/07/25 10:40:46;;;;;;;;;;;21.70;79.00;;;;;;5032266;28;1181;-68
2021/07/25 10:43:13;;;;;;;;;;;21.70;79.00;;;;;;5030977;28;1391;-67
2021/07/25 10:45:39;;;;;;;;;;;21.70;79.00;;;;;;5048000;28;1890;-67
2021/07/25 10:48:14;;;;;;;;;;;21.70;79.00;;;;;;5052339;28;1268;-68
2021/07/25 10:50:39;;;;;;;;;;;21.70;79.00;;;;;;5051892;28;1132;-68
2021/07/25 10:53:05;;;;;;;;;;;21.70;79.00;;;;;;5039002;28;1086;-68
2021/07/25 10:55:41;;;;;;;;;;;21.70;79.00;;;;;;5031436;28;1111;-68
2021/07/25 10:58:07;;;;;;;;;;;21.70;78.90;;;;;;5031304;28;1221;-68
2021/07/25 11:00:39;;;;;;;;;;;21.70;79.00;;;;;;5032605;28;1252;-68
2021/07/25 11:03:05;;;;;;;;;;;21.70;79.00;;;;;;5031425;28;1071;-68
2021/07/25 11:05:30;;;;;;;;;;;21.70;78.90;;;;;;5031772;28;1902;-68
2021/07/25 11:07:57;;;;;;;;;;;21.70;78.90;;;;;;5031667;28;1270;-67
2021/07/25 11:10:34;;;;;;;;;;;21.70;78.90;;;;;;5031738;28;1110;-68
2021/07/25 11:13:00;;;;;;;;;;;21.70;78.90;;;;;;5035486;28;1067;-68
2021/07/25 11:15:28;;;;;;;;;;;21.70;78.90;;;;;;5034877;28;1075;-68
2021/07/25 11:17:54;;;;;;;;;;;21.70;78.90;;;;;;5035518;28;1694;-67
2021/07/25 11:20:38;;;;;;;;;;;21.70;78.90;;;;;;5037707;28;1119;-68
2021/07/25 11:23:24;;;;;;;;;;;21.70;78.90;;;;;;5050670;28;1058;-67
2021/07/25 11:25:53;;;;;;;;;;;21.70;78.90;;;;;;5027228;28;1957;-68
2021/07/25 11:28:37;;;;;;;;;;;21.70;78.90;;;;;;5035360;28;1323;-68
2021/07/25 11:31:02;;;;;;;;;;;21.70;78.90;;;;;;5035233;28;1051;-67
2021/07/25 11:33:48;;;;;;;;;;;21.70;78.90;;;;;;5035543;28;1083;-68
2021/07/25 11:36:17;;;;;;;;;;;21.70;78.90;;;;;;5034401;28;1143;-67
2021/07/25 11:38:46;;;;;;;;;;;21.70;78.90;;;;;;5035422;28;1355;-68
2021/07/25 11:41:12;;;;;;;;;;;21.70;78.90;;;;;;5034821;28;1254;-67
2021/07/25 11:43:54;;;;;;;;;;;21.70;79.60;;;;;;5035570;28;1127;-67
2021/07/25 11:46:26;;;;;;;;;;;21.70;79.00;;;;;;5052985;28;1905;-67
2021/07/25 11:49:10;;;;;;;;;;;21.70;78.90;;;;;;5053929;28;1239;-68
2021/07/25 11:51:36;;;;;;;;;;;21.70;78.90;;;;;;5054343;28;1079;-68
2021/07/25 11:54:01;;;;;;;;;;;21.70;78.90;;;;;;5034520;28;1122;-67
2021/07/25 11:56:27;;;;;;;;;;;21.70;79.00;;;;;;5034722;28;1123;-68
2021/07/25 11:59:05;;;;;;;;;;;21.70;79.00;;;;;;5033491;28;1306;-68
2021/07/25 12:01:34;;;;;;;;;;;21.70;78.90;;;;;;5034287;28;1150;-68
2021/07/25 12:04:03;;;;;;;;;;;21.70;79.00;;;;;;5032851;28;1067;-67
2021/07/25 12:06:28;;;;;;;;;;;21.70;78.90;;;;;;5033129;28;1910;-68
2021/07/25 12:09:03;;;;;;;;;;;21.70;79.00;;;;;;5034910;28;1287;-68
2021/07/25 12:11:28;;;;;;;;;;;21.70;79.00;;;;;;5034615;28;1146;-67
2021/07/25 12:13:54;;;;;;;;;;;21.70;79.00;;;;;;5034240;28;1137;-68
2021/07/25 12:16:19;;;;;;;;;;;21.70;79.00;;;;;;5033750;28;1023;-68
2021/07/25 12:18:46;;;;;;;;;;;21.70;79.10;;;;;;5034585;28;1266;-68
2021/07/25 12:21:31;;;;;;;;;;;21.70;79.00;;;;;;5043735;28;1264;-68
2021/07/25 12:23:57;;;;;;;;;;;21.70;79.00;;;;;;5041081;28;1118;-67
2021/07/25 12:26:38;;;;;;;;;;;21.70;79.00;;;;;;5032760;28;1968;-68
2021/07/25 12:29:23;;;;;;;;;;;21.70;79.00;;;;;;5034401;28;1243;-68
2021/07/25 12:31:49;;;;;;;;;;;21.70;79.00;;;;;;5033869;28;1128;-67
2021/07/25 12:34:15;;;;;;;;;;;21.70;79.00;;;;;;5033273;28;1149;-68
2021/07/25 12:36:40;;;;;;;;;;;21.70;79.00;;;;;;5032912;28;1461;-68
2021/07/25 12:39:24;;;;;;;;;;;21.70;79.70;;;;;;5032791;28;1270;-67
2021/07/25 12:41:49;;;;;;;;;;;21.70;79.00;;;;;;5034252;28;1146;-67
2021/07/25 12:44:24;;;;;;;;;;;21.70;79.00;;;;;;5038859;28;1099;-67
2021/07/25 12:46:50;;;;;;;;;;;21.70;79.00;;;;;;5053711;28;1882;-68
2021/07/25 12:49:15;;;;;;;;;;;21.70;78.90;;;;;;5053537;28;1300;-67
2021/07/25 12:51:44;;;;;;;;;;;21.70;78.90;;;;;;5051871;28;1141;-68
2021/07/25 12:54:12;;;;;;;;;;;21.70;79.00;;;;;;5032060;28;1111;-67
2021/07/25 12:56:37;;;;;;;;;;;21.70;78.90;;;;;;5033666;28;1102;-67
2021/07/25 12:59:05;;;;;;;;;;;21.70;78.90;;;;;;5032788;28;1224;-68
2021/07/25 13:03:57;;;;;;;;;;;21.70;78.90;;;;;;5032746;28;1052;-68
2021/07/25 13:06:23;;;;;;;;;;;21.70;78.90;;;;;;5032005;28;1971;-67
2021/07/25 13:08:52;;;;;;;;;;;21.70;78.90;;;;;;5033197;28;1221;-68
2021/07/25 13:11:18;;;;;;;;;;;21.70;79.00;;;;;;5032171;28;1133;-68
2021/07/25 13:13:45;;;;;;;;;;;21.70;78.90;;;;;;5033275;28;1110;-68
2021/07/25 13:16:15;;;;;;;;;;;21.70;78.90;;;;;;5031466;28;1452;-67
2021/07/25 13:18:41;;;;;;;;;;;21.70;78.90;;;;;;5033403;28;1275;-68
2021/07/25 13:21:07;;;;;;;;;;;21.70;78.90;;;;;;5024088;28;1285;-67
2021/07/25 13:23:32;;;;;;;;;;;21.70;78.90;;;;;;5042791;28;1122;-68
2021/07/25 13:25:57;;;;;;;;;;;21.70;78.90;;;;;;5032514;28;1946;-68
2021/07/25 13:28:23;;;;;;;;;;;21.70;78.90;;;;;;5033176;28;1265;-68
2021/07/25 13:30:48;;;;;;;;;;;21.70;78.90;;;;;;5033035;28;1154;-68
2021/07/25 13:33:14;;;;;;;;;;;21.70;78.90;;;;;;5032752;28;1122;-68
2021/07/25 13:35:39;;;;;;;;;;;21.70;78.90;;;;;;5031897;28;1126;-68
2021/07/25 13:38:05;;;;;;;;;;;21.70;78.90;;;;;;5031686;28;1280;-67
2021/07/25 13:40:30;;;;;;;;;;;21.70;78.90;;;;;;5032761;28;1176;-67
2021/07/25 13:42:55;;;;;;;;;;;21.70;78.90;;;;;;5033008;28;1134;-67
2021/07/25 13:45:21;;;;;;;;;;;21.70;78.90;;;;;;5046712;28;1973;-67
2021/07/25 13:47:46;;;;;;;;;;;21.70;78.90;;;;;;5052578;28;1284;-67
2021/07/25 13:50:13;;;;;;;;;;;21.70;78.90;;;;;;5052213;28;1146;-68
2021/07/25 13:52:38;;;;;;;;;;;21.70;78.90;;;;;;5044555;28;1094;-68
2021/07/25 13:55:04;;;;;;;;;;;21.70;78.90;;;;;;5030449;28;1118;-68
2021/07/25 13:57:29;;;;;;;;;;;21.70;78.90;;;;;;5032798;28;1083;-67
2021/07/25 13:59:55;;;;;;;;;;;21.70;78.90;;;;;;5032318;28;1358;-68
2021/07/25 14:02:20;;;;;;;;;;;21.70;78.90;;;;;;5032653;28;1099;-68
2021/07/25 14:04:46;;;;;;;;;;;21.70;78.90;;;;;;5031428;28;988;-67
2021/07/25 14:07:14;;;;;;;;;;;21.70;78.90;;;;;;5032645;28;1910;-68
2021/07/25 14:09:39;;;;;;;;;;;21.70;79.00;;;;;;5032476;28;1201;-68
2021/07/25 14:12:05;;;;;;;;;;;21.70;78.90;;;;;;5032657;28;1067;-68
2021/07/25 14:14:31;;;;;;;;;;;21.70;78.90;;;;;;5031721;28;1069;-67
2021/07/25 14:17:00;;;;;;;;;;;21.70;78.90;;;;;;5032230;28;1071;-69
2021/07/25 14:19:25;;;;;;;;;;;21.70;79.00;;;;;;5031901;28;1362;-68
2021/07/25 14:21:50;;;;;;;;;;;21.70;78.90;;;;;;5047231;28;1139;-68
2021/07/25 14:24:16;;;;;;;;;;;21.70;78.90;;;;;;5037241;28;1075;-68
2021/07/25 14:26:41;;;;;;;;;;;21.70;78.90;;;;;;5032549;28;1902;-68
2021/07/25 14:29:07;;;;;;;;;;;21.70;79.70;;;;;;5032240;28;1268;-67
2021/07/25 14:31:32;;;;;;;;;;;21.70;78.90;;;;;;5032248;28;1125;-68